Time;durP1;ratioP1;P1;durP2;ratioP2;P2;SDS_P1;SDS_P2;PMS_P1;PMS_P2;Temp;Humidity;BMP_temperature;BMP_pressure;BME280_temperature;BME280_humidity;BME280_pressure;Samples;Min_cycle;Max_cycle;Signal;HPM_P1;HPM_P2
2023/12/08 00:02:08;;;;;;;59.97;30.63;;;1.10;85.50;;;;;;6334634;28;20228;-84
2023/12/08 00:05:13;;;;;;;53.10;27.43;;;1.00;85.50;;;;;;6320916;28;20939;-85
2023/12/08 00:08:16;;;;;;;64.23;29.40;;;1.00;85.50;;;;;;6330748;28;20733;-83
2023/12/08 00:11:19;;;;;;;55.90;29.43;;;1.00;85.60;;;;;;6324231;28;20321;-82
2023/12/08 00:14:22;;;;;;;61.40;29.20;;;1.00;85.60;;;;;;6302064;28;20320;-83
2023/12/08 00:17:27;;;;;;;62.00;29.87;;;1.00;85.60;;;;;;6314503;28;20244;-83
2023/12/08 00:20:31;;;;;;;49.33;26.50;;;1.00;85.60;;;;;;6324196;28;20260;-83
2023/12/08 00:23:34;;;;;;;60.37;28.93;;;1.00;85.40;;;;;;6322155;28;20261;-85
2023/12/08 00:26:38;;;;;;;54.27;28.50;;;1.00;85.50;;;;;;6326428;28;20328;-80
2023/12/08 00:29:41;;;;;;;52.03;27.93;;;1.00;85.50;;;;;;6318757;28;20240;-85
2023/12/08 00:32:46;;;;;;;56.97;29.47;;;1.00;85.60;;;;;;6315169;28;20244;-82
2023/12/08 00:35:50;;;;;;;57.03;29.57;;;1.00;85.70;;;;;;6314192;28;20297;-82
2023/12/08 00:38:54;;;;;;;64.13;31.27;;;1.00;85.70;;;;;;6340933;28;20231;-84
2023/12/08 00:41:57;;;;;;;55.80;28.73;;;1.00;85.80;;;;;;6284390;28;20240;-85
2023/12/08 00:45:00;;;;;;;55.40;29.77;;;1.00;85.70;;;;;;6326225;28;20241;-83
2023/12/08 00:48:06;;;;;;;60.90;31.57;;;1.00;85.60;;;;;;6335665;28;20281;-82
2023/12/08 00:51:12;;;;;;;56.47;30.03;;;1.00;85.60;;;;;;6329435;28;20232;-80
2023/12/08 00:54:15;;;;;;;62.03;30.60;;;1.00;85.60;;;;;;6338608;28;20225;-80
2023/12/08 00:57:18;;;;;;;60.47;31.17;;;1.00;85.70;;;;;;6333747;28;20283;-81
2023/12/08 01:00:22;;;;;;;56.13;29.53;;;1.00;85.70;;;;;;6319602;28;20327;-85
2023/12/08 01:03:26;;;;;;;58.97;29.17;;;1.00;85.80;;;;;;6321758;28;20849;-84
2023/12/08 01:06:30;;;;;;;60.23;29.73;;;1.00;85.80;;;;;;6315873;28;20224;-85
2023/12/08 01:09:33;;;;;;;56.43;28.77;;;1.00;85.80;;;;;;6309481;28;20228;-85
2023/12/08 01:12:36;;;;;;;62.97;29.33;;;1.00;85.70;;;;;;6315340;28;20815;-85
2023/12/08 01:15:39;;;;;;;60.50;30.10;;;1.00;85.70;;;;;;6312852;28;20551;-84
2023/12/08 01:18:44;;;;;;;60.40;29.17;;;1.00;85.70;;;;;;6316289;28;20323;-85
2023/12/08 01:21:47;;;;;;;60.93;29.20;;;1.00;85.80;;;;;;6315892;28;20325;-83
2023/12/08 01:24:51;;;;;;;49.30;25.53;;;1.00;85.60;;;;;;6309624;28;20241;-86
2023/12/08 01:27:55;;;;;;;59.67;29.13;;;1.00;85.70;;;;;;6316717;28;20232;-82
2023/12/08 01:30:58;;;;;;;55.70;30.57;;;1.10;85.70;;;;;;6316995;28;20327;-82
2023/12/08 01:34:02;;;;;;;65.37;29.63;;;1.10;85.60;;;;;;6314731;28;20233;-85
2023/12/08 01:37:06;;;;;;;58.50;28.90;;;1.00;85.50;;;;;;6314992;28;20233;-83
2023/12/08 01:40:11;;;;;;;59.83;28.50;;;1.10;85.50;;;;;;6341036;28;20669;-84
2023/12/08 01:43:15;;;;;;;59.80;28.67;;;1.10;85.60;;;;;;6335428;28;20239;-85
2023/12/08 01:46:20;;;;;;;57.90;27.30;;;1.00;85.40;;;;;;6341306;28;20232;-83
2023/12/08 01:49:25;;;;;;;55.73;27.67;;;1.00;85.60;;;;;;6342849;28;20240;-85
2023/12/08 01:52:28;;;;;;;57.00;28.33;;;1.00;85.60;;;;;;6327492;28;20236;-85
2023/12/08 01:55:32;;;;;;;64.50;29.97;;;1.00;85.50;;;;;;6322284;28;20318;-84
2023/12/08 01:58:35;;;;;;;63.17;28.67;;;1.00;85.50;;;;;;6332887;28;20296;-84
2023/12/08 02:01:41;;;;;;;55.03;27.47;;;1.00;85.40;;;;;;6339967;28;20247;-87
2023/12/08 02:04:49;;;;;;;63.43;28.70;;;1.00;85.60;;;;;;6334509;28;20236;-82
2023/12/08 02:07:56;;;;;;;62.90;28.20;;;1.00;85.60;;;;;;6336697;28;20359;-83
2023/12/08 02:10:59;;;;;;;63.83;30.77;;;1.00;85.80;;;;;;6337819;28;20277;-85
2023/12/08 02:14:03;;;;;;;68.43;29.80;;;1.00;85.90;;;;;;6333536;28;20231;-85
2023/12/08 02:17:12;;;;;;;64.50;29.10;;;1.00;85.80;;;;;;6337326;28;20236;-84
2023/12/08 02:20:17;;;;;;;61.03;28.90;;;1.00;85.80;;;;;;6333958;28;20228;-82
2023/12/08 02:23:20;;;;;;;66.23;30.50;;;1.00;85.80;;;;;;6340772;28;20232;-86
2023/12/08 02:26:25;;;;;;;72.87;30.37;;;1.00;85.90;;;;;;6346388;28;20682;-84
2023/12/08 02:29:29;;;;;;;66.33;29.43;;;1.00;85.80;;;;;;6344442;28;20277;-83
2023/12/08 02:32:36;;;;;;;73.70;30.90;;;1.00;85.80;;;;;;6332697;28;20240;-84
2023/12/08 02:35:43;;;;;;;62.43;30.87;;;1.00;85.80;;;;;;6339962;28;20238;-85
2023/12/08 02:38:48;;;;;;;58.33;28.63;;;1.00;85.80;;;;;;6310904;28;20232;-83
2023/12/08 02:41:53;;;;;;;66.63;29.97;;;1.10;85.80;;;;;;6316352;28;20947;-84
2023/12/08 02:44:56;;;;;;;63.83;28.87;;;1.10;85.80;;;;;;6314948;28;20394;-85
2023/12/08 02:47:59;;;;;;;68.57;30.50;;;1.10;85.80;;;;;;6304480;28;20751;-84
2023/12/08 02:51:04;;;;;;;62.93;28.73;;;1.20;85.70;;;;;;6314018;28;20278;-83
2023/12/08 02:54:10;;;;;;;60.97;30.57;;;1.20;85.30;;;;;;6313400;28;20319;-84
2023/12/08 02:57:15;;;;;;;63.93;30.27;;;1.20;85.30;;;;;;6307982;28;20252;-83
2023/12/08 03:00:19;;;;;;;66.90;30.80;;;1.20;85.20;;;;;;6307842;28;20605;-83
2023/12/08 03:03:22;;;;;;;66.20;30.23;;;1.10;85.30;;;;;;6313386;28;20240;-83
2023/12/08 03:06:25;;;;;;;60.17;30.13;;;1.10;85.40;;;;;;6314310;28;20891;-84
2023/12/08 03:09:28;;;;;;;60.23;29.57;;;1.10;85.60;;;;;;6312921;28;20307;-84
2023/12/08 03:12:33;;;;;;;54.50;27.87;;;1.20;85.70;;;;;;6312989;28;20374;-84
2023/12/08 03:15:37;;;;;;;59.13;28.53;;;1.20;85.50;;;;;;6304815;28;20268;-84
2023/12/08 03:18:40;;;;;;;63.33;29.90;;;1.20;85.40;;;;;;6305986;28;20493;-86
2023/12/08 03:21:43;;;;;;;57.63;29.80;;;1.20;85.50;;;;;;6312836;28;20232;-82
2023/12/08 03:24:46;;;;;;;55.30;28.97;;;1.10;85.50;;;;;;6304203;28;20698;-83
2023/12/08 03:27:51;;;;;;;63.97;30.47;;;1.20;85.50;;;;;;6312073;28;20230;-83
2023/12/08 03:30:54;;;;;;;64.87;30.83;;;1.20;85.50;;;;;;6332535;28;20239;-87
2023/12/08 03:33:58;;;;;;;59.23;29.60;;;1.20;85.50;;;;;;6334734;28;20318;-84
2023/12/08 03:37:01;;;;;;;60.43;29.43;;;1.20;85.60;;;;;;6337000;28;20242;-83
2023/12/08 03:40:06;;;;;;;65.83;30.50;;;1.20;85.70;;;;;;6335857;28;20348;-85
2023/12/08 03:43:10;;;;;;;65.10;31.33;;;1.20;85.70;;;;;;6334146;28;20228;-83
2023/12/08 03:46:13;;;;;;;67.83;30.80;;;1.20;85.70;;;;;;6337896;28;20239;-84
2023/12/08 03:49:17;;;;;;;65.00;29.63;;;1.20;85.70;;;;;;6335057;28;20758;-84
2023/12/08 03:52:20;;;;;;;61.93;31.17;;;1.20;85.60;;;;;;6314024;28;20230;-82
2023/12/08 03:55:23;;;;;;;66.93;30.93;;;1.20;85.70;;;;;;6336198;28;20328;-84
2023/12/08 03:58:29;;;;;;;69.57;32.13;;;1.30;85.60;;;;;;6338286;28;20239;-84
2023/12/08 04:01:32;;;;;;;64.47;31.90;;;1.20;85.50;;;;;;6331735;28;20309;-84
2023/12/08 04:04:35;;;;;;;55.40;29.50;;;1.20;85.50;;;;;;6336236;28;20373;-82
2023/12/08 04:07:39;;;;;;;62.00;31.50;;;1.30;85.60;;;;;;6337368;28;20235;-83
2023/12/08 04:10:42;;;;;;;60.33;31.07;;;1.20;85.50;;;;;;6327289;28;21704;-84
2023/12/08 04:13:46;;;;;;;62.23;30.53;;;1.20;85.60;;;;;;6337384;28;20243;-84
2023/12/08 04:16:52;;;;;;;57.27;29.77;;;1.30;85.60;;;;;;6337591;28;20881;-81
2023/12/08 04:19:56;;;;;;;59.30;30.00;;;1.30;85.60;;;;;;6333221;28;20234;-84
2023/12/08 04:22:59;;;;;;;64.60;31.77;;;1.40;85.50;;;;;;6339063;28;20239;-84
2023/12/08 04:26:07;;;;;;;63.30;29.67;;;1.40;85.50;;;;;;6337068;28;20239;-84
2023/12/08 04:29:12;;;;;;;60.63;31.97;;;1.40;85.40;;;;;;6332809;28;20246;-80
2023/12/08 04:32:15;;;;;;;57.97;31.07;;;1.40;85.40;;;;;;6325399;28;20241;-82
2023/12/08 04:35:18;;;;;;;61.97;31.33;;;1.40;85.30;;;;;;6345039;28;20239;-83
2023/12/08 04:38:21;;;;;;;61.70;32.03;;;1.40;85.30;;;;;;6342288;28;20304;-83
2023/12/08 04:41:24;;;;;;;59.07;29.53;;;1.40;85.10;;;;;;6333576;28;20231;-85
2023/12/08 04:44:30;;;;;;;57.27;30.13;;;1.40;85.10;;;;;;6337652;28;20236;-85
2023/12/08 04:47:33;;;;;;;62.10;31.47;;;1.40;85.00;;;;;;6338361;28;20277;-83
2023/12/08 04:50:36;;;;;;;59.03;32.30;;;1.40;84.90;;;;;;6335976;28;20713;-83
2023/12/08 04:53:40;;;;;;;59.20;31.73;;;1.40;84.90;;;;;;6338391;28;20346;-82
2023/12/08 04:56:45;;;;;;;55.23;30.27;;;1.40;84.70;;;;;;6333865;28;20311;-82
2023/12/08 04:59:50;;;;;;;59.40;31.47;;;1.40;84.70;;;;;;6330643;28;20242;-86
2023/12/08 05:02:57;;;;;;;61.93;30.67;;;1.40;84.80;;;;;;6343018;28;20244;-84
2023/12/08 05:06:01;;;;;;;61.10;32.40;;;1.40;84.70;;;;;;6330534;28;20244;-83
2023/12/08 05:09:04;;;;;;;55.30;30.27;;;1.40;84.50;;;;;;6335888;28;20236;-82
2023/12/08 05:12:08;;;;;;;59.23;31.17;;;1.30;84.60;;;;;;6334403;28;20797;-83
2023/12/08 05:15:13;;;;;;;49.60;29.07;;;1.30;84.70;;;;;;6340226;28;20229;-85
2023/12/08 05:18:16;;;;;;;62.87;32.13;;;1.40;84.80;;;;;;6339414;28;20232;-83
2023/12/08 05:21:20;;;;;;;54.27;30.63;;;1.40;84.70;;;;;;6341034;28;20330;-83
2023/12/08 05:24:23;;;;;;;47.17;29.00;;;1.40;84.60;;;;;;6341286;28;20293;-83
2023/12/08 05:27:26;;;;;;;56.97;31.87;;;1.40;84.50;;;;;;6324473;28;20366;-84
2023/12/08 05:30:31;;;;;;;56.37;31.37;;;1.40;84.40;;;;;;6342007;28;20231;-80
2023/12/08 05:33:34;;;;;;;57.87;32.33;;;1.40;84.30;;;;;;6341185;27;20755;-83
2023/12/08 05:36:37;;;;;;;57.00;31.93;;;1.30;84.40;;;;;;6331246;28;20232;-82
2023/12/08 05:39:40;;;;;;;51.23;30.87;;;1.40;84.50;;;;;;6340326;28;20769;-85
2023/12/08 05:42:44;;;;;;;56.13;31.13;;;1.40;84.40;;;;;;6333504;28;20255;-82
2023/12/08 05:45:51;;;;;;;52.70;29.77;;;1.40;84.20;;;;;;6325039;28;20236;-85
2023/12/08 05:48:54;;;;;;;53.87;29.97;;;1.40;84.10;;;;;;6334236;28;20232;-83
2023/12/08 05:51:58;;;;;;;52.20;30.13;;;1.40;84.20;;;;;;6339922;28;20227;-82
2023/12/08 05:55:01;;;;;;;52.17;29.20;;;1.40;84.10;;;;;;6341355;28;20235;-85
2023/12/08 05:58:04;;;;;;;55.73;29.50;;;1.30;84.20;;;;;;6341264;28;20270;-84
2023/12/08 06:01:12;;;;;;;48.40;29.47;;;1.30;84.20;;;;;;6334865;28;20269;-85
2023/12/08 06:04:15;;;;;;;52.27;29.73;;;1.30;84.30;;;;;;6338383;28;20220;-82
2023/12/08 06:07:18;;;;;;;51.00;29.13;;;1.30;84.20;;;;;;6340282;28;20735;-85
2023/12/08 06:10:24;;;;;;;49.63;30.47;;;1.30;84.10;;;;;;6341114;28;20236;-85
2023/12/08 06:13:28;;;;;;;46.70;29.27;;;1.40;83.90;;;;;;6340805;28;20239;-85
2023/12/08 06:16:32;;;;;;;46.43;28.27;;;1.30;83.90;;;;;;6340541;28;20311;-84
2023/12/08 06:19:35;;;;;;;52.13;29.67;;;1.20;83.90;;;;;;6341339;28;20271;-85
2023/12/08 06:22:39;;;;;;;50.00;30.10;;;1.20;83.90;;;;;;6340646;28;20369;-86
2023/12/08 06:25:42;;;;;;;47.10;28.70;;;1.20;84.00;;;;;;6339623;28;20240;-78
2023/12/08 06:28:45;;;;;;;47.63;29.63;;;1.20;84.00;;;;;;6337671;28;20370;-80
2023/12/08 06:31:50;;;;;;;53.77;31.73;;;1.20;83.90;;;;;;6339108;28;20251;-81
2023/12/08 06:34:53;;;;;;;55.87;30.47;;;1.20;83.70;;;;;;6329972;28;20257;-79
2023/12/08 06:37:58;;;;;;;51.93;30.77;;;1.10;83.80;;;;;;6333159;28;20267;-79
2023/12/08 06:41:00;;;;;;;48.37;29.53;;;1.10;83.90;;;;;;6339048;28;20231;-79
2023/12/08 06:44:04;;;;;;;50.33;31.03;;;1.00;83.90;;;;;;6336423;28;20232;-80
2023/12/08 06:47:33;;;;;;;51.27;29.80;;;1.00;84.00;;;;;;6329818;28;20205;-78
2023/12/08 06:51:00;;;;;;;54.20;31.00;;;1.00;84.10;;;;;;6332022;28;20867;-80
2023/12/08 06:54:27;;;;;;;51.40;30.47;;;1.00;84.10;;;;;;6258134;28;20237;-81
2023/12/08 06:57:32;;;;;;;52.53;29.97;;;1.00;84.00;;;;;;6273964;28;22544;-81
2023/12/08 07:00:35;;;;;;;51.57;30.03;;;1.00;84.00;;;;;;6312429;28;20317;-80
2023/12/08 07:03:40;;;;;;;53.13;32.00;;;1.00;84.00;;;;;;6313490;28;20321;-79
2023/12/08 07:06:44;;;;;;;52.53;31.10;;;1.00;84.00;;;;;;6301963;28;20679;-79
2023/12/08 07:09:47;;;;;;;48.80;29.80;;;1.00;84.00;;;;;;6314555;28;20483;-81
2023/12/08 07:12:52;;;;;;;46.47;30.13;;;1.00;84.00;;;;;;6309775;28;20235;-80
2023/12/08 07:15:55;;;;;;;50.10;31.43;;;1.00;84.00;;;;;;6336905;28;20243;-81
2023/12/08 07:19:00;;;;;;;43.23;29.53;;;1.00;83.90;;;;;;6326359;28;20236;-81
2023/12/08 07:22:03;;;;;;;49.57;28.77;;;1.00;83.80;;;;;;6335919;28;20232;-80
2023/12/08 07:25:08;;;;;;;53.30;29.83;;;1.00;83.60;;;;;;6333543;28;20235;-78
2023/12/08 07:28:11;;;;;;;48.87;28.63;;;1.00;83.30;;;;;;6328988;28;20233;-80
2023/12/08 07:31:15;;;;;;;50.60;30.80;;;1.00;83.40;;;;;;6332739;28;20240;-80
2023/12/08 07:34:19;;;;;;;47.33;28.73;;;1.10;83.00;;;;;;6327867;28;20266;-78
2023/12/08 07:37:23;;;;;;;48.10;29.73;;;1.10;82.80;;;;;;6323870;28;20239;-81
2023/12/08 07:40:26;;;;;;;48.07;29.63;;;1.00;82.60;;;;;;6327703;28;20228;-79
2023/12/08 07:43:30;;;;;;;49.50;30.93;;;1.00;82.60;;;;;;6323017;28;20673;-77
2023/12/08 07:46:33;;;;;;;41.50;26.73;;;0.90;82.60;;;;;;6324174;28;20478;-78
2023/12/08 07:49:37;;;;;;;45.73;28.97;;;0.90;82.30;;;;;;6331547;28;20250;-80
2023/12/08 07:52:41;;;;;;;48.63;30.67;;;0.90;82.30;;;;;;6336267;28;20239;-78
2023/12/08 07:55:45;;;;;;;46.57;29.43;;;0.90;82.00;;;;;;6337573;28;20246;-79
2023/12/08 07:58:48;;;;;;;43.77;28.03;;;0.90;81.70;;;;;;6327143;28;20240;-79
2023/12/08 08:01:53;;;;;;;43.13;28.03;;;0.90;81.90;;;;;;6332592;28;20236;-80
2023/12/08 08:04:57;;;;;;;44.77;29.70;;;0.80;81.70;;;;;;6324890;28;20240;-79
2023/12/08 08:08:02;;;;;;;44.93;28.67;;;0.80;81.80;;;;;;6335517;28;20284;-78
2023/12/08 08:11:05;;;;;;;43.00;28.60;;;0.80;81.60;;;;;;6329859;28;20232;-75
2023/12/08 08:14:10;;;;;;;48.20;28.93;;;0.90;81.50;;;;;;6337138;28;20273;-77
2023/12/08 08:17:13;;;;;;;42.80;28.77;;;1.00;81.50;;;;;;6311945;28;20317;-77
2023/12/08 08:20:18;;;;;;;39.00;27.83;;;1.00;81.00;;;;;;6306636;28;20307;-77
2023/12/08 08:23:21;;;;;;;40.43;27.73;;;1.00;80.60;;;;;;6315014;28;20284;-76
2023/12/08 08:26:25;;;;;;;43.13;27.90;;;1.10;80.60;;;;;;6306702;28;20630;-80
2023/12/08 08:29:28;;;;;;;41.10;26.93;;;1.10;80.50;;;;;;6315947;28;20273;-81
2023/12/08 08:32:31;;;;;;;41.93;27.80;;;1.10;80.10;;;;;;6320929;28;20235;-76
2023/12/08 08:35:36;;;;;;;38.17;26.03;;;1.10;79.90;;;;;;6313057;28;20240;-80
2023/12/08 08:38:39;;;;;;;39.33;26.33;;;1.20;79.90;;;;;;6315492;28;20240;-79
2023/12/08 08:41:44;;;;;;;36.60;25.23;;;1.20;79.60;;;;;;6315188;28;20296;-78
2023/12/08 08:44:47;;;;;;;37.67;25.03;;;1.20;79.40;;;;;;6313697;28;20241;-77
2023/12/08 08:47:50;;;;;;;37.77;25.97;;;1.20;79.10;;;;;;6322124;28;20248;-77
2023/12/08 08:50:55;;;;;;;34.77;24.33;;;1.20;79.10;;;;;;6320665;28;20254;-79
2023/12/08 08:53:59;;;;;;;37.53;25.20;;;1.20;79.10;;;;;;6312692;28;20233;-77
2023/12/08 08:57:04;;;;;;;40.57;25.80;;;1.20;78.90;;;;;;6305560;28;20237;-78
2023/12/08 09:00:11;;;;;;;42.40;25.27;;;1.20;79.10;;;;;;6313459;28;20401;-77
2023/12/08 09:03:15;;;;;;;38.83;24.57;;;1.20;78.70;;;;;;6305914;28;20237;-78
2023/12/08 09:06:21;;;;;;;38.80;24.53;;;1.20;78.60;;;;;;6319026;28;20624;-77
2023/12/08 09:09:29;;;;;;;34.80;24.73;;;1.20;78.70;;;;;;6317201;28;20243;-80
2023/12/08 09:12:32;;;;;;;37.47;23.43;;;1.20;78.50;;;;;;6313163;28;20240;-78
2023/12/08 09:15:35;;;;;;;40.20;24.10;;;1.30;78.50;;;;;;6307884;28;20237;-78
2023/12/08 09:18:38;;;;;;;37.77;24.00;;;1.40;78.70;;;;;;6303295;28;20240;-78
2023/12/08 09:21:43;;;;;;;33.03;22.53;;;1.40;78.20;;;;;;6306610;28;20493;-79
2023/12/08 09:24:56;;;;;;;40.83;23.17;;;1.40;77.90;;;;;;6315338;28;20240;-78
2023/12/08 09:27:59;;;;;;;34.00;22.97;;;1.40;77.40;;;;;;6313668;28;20252;-79
2023/12/08 09:31:02;;;;;;;32.33;23.03;;;1.50;77.30;;;;;;6311367;28;20320;-80
2023/12/08 09:34:05;;;;;;;32.10;21.40;;;1.40;77.00;;;;;;6311811;28;20233;-79
2023/12/08 09:37:11;;;;;;;30.97;22.17;;;1.50;77.30;;;;;;6308412;28;20256;-79
2023/12/08 09:40:36;;;;;;;31.70;21.90;;;1.60;77.30;;;;;;6308807;28;20714;-80
2023/12/08 09:43:43;;;;;;;36.40;21.30;;;1.60;76.50;;;;;;6314323;28;20229;-76
2023/12/08 09:46:54;;;;;;;29.17;21.30;;;1.70;76.30;;;;;;6310704;28;20360;-81
2023/12/08 09:49:59;;;;;;;31.43;22.03;;;1.60;76.40;;;;;;6312073;28;20240;-80
2023/12/08 09:53:05;;;;;;;33.40;22.57;;;1.70;76.20;;;;;;6305629;28;20308;-80
2023/12/08 09:56:08;;;;;;;34.10;21.30;;;1.70;76.30;;;;;;6307022;28;20247;-83
2023/12/08 09:59:12;;;;;;;29.97;21.43;;;1.70;75.90;;;;;;6312527;28;20232;-79
2023/12/08 10:02:16;;;;;;;35.13;21.27;;;1.60;76.20;;;;;;6306291;28;20398;-79
2023/12/08 10:05:20;;;;;;;30.80;21.53;;;1.70;76.20;;;;;;6308944;28;20252;-82
2023/12/08 10:08:25;;;;;;;32.60;21.80;;;1.80;75.70;;;;;;6301664;28;20382;-81
2023/12/08 10:11:29;;;;;;;30.23;20.93;;;1.80;75.30;;;;;;6336653;28;20247;-80
2023/12/08 10:14:33;;;;;;;27.97;20.70;;;1.70;75.30;;;;;;6334244;28;20500;-82
2023/12/08 10:17:47;;;;;;;35.70;21.83;;;1.50;75.30;;;;;;6317935;28;20240;-81
2023/12/08 10:20:53;;;;;;;34.10;22.17;;;1.50;75.90;;;;;;6333137;28;20251;-78
2023/12/08 10:24:02;;;;;;;34.77;21.50;;;1.40;76.00;;;;;;6334066;27;20327;-77
2023/12/08 10:27:05;;;;;;;37.20;22.17;;;1.40;76.00;;;;;;6334375;28;20571;-79
2023/12/08 10:30:10;;;;;;;29.63;22.53;;;1.50;75.70;;;;;;6332424;28;20224;-78
2023/12/08 10:33:19;;;;;;;28.57;21.10;;;1.50;75.70;;;;;;6338131;28;20236;-76
2023/12/08 10:36:22;;;;;;;27.53;21.80;;;1.50;75.40;;;;;;6330895;28;20244;-76
2023/12/08 10:39:27;;;;;;;30.40;21.80;;;1.40;75.80;;;;;;6334890;28;20601;-82
2023/12/08 10:42:32;;;;;;;31.80;22.17;;;1.50;75.90;;;;;;6338852;28;20297;-76
2023/12/08 10:45:35;;;;;;;31.40;23.10;;;1.40;76.10;;;;;;6336818;28;20240;-78
2023/12/08 10:48:39;;;;;;;31.57;21.50;;;1.40;75.70;;;;;;6320366;28;20232;-77
2023/12/08 10:51:45;;;;;;;29.07;20.93;;;1.40;76.20;;;;;;6333552;28;20254;-79
2023/12/08 10:54:51;;;;;;;32.87;21.10;;;1.40;76.10;;;;;;6335654;28;20252;-81
2023/12/08 10:57:57;;;;;;;25.70;20.20;;;1.50;75.50;;;;;;6331525;28;20377;-78
2023/12/08 11:01:02;;;;;;;26.30;20.33;;;1.50;75.70;;;;;;6307313;28;20283;-79
2023/12/08 11:04:10;;;;;;;28.97;21.43;;;1.50;75.80;;;;;;6305103;28;20237;-81
2023/12/08 11:07:18;;;;;;;32.23;21.80;;;1.50;76.10;;;;;;6305678;28;20229;-80
2023/12/08 11:10:26;;;;;;;30.33;21.53;;;1.50;76.10;;;;;;6300710;28;20327;-79
2023/12/08 11:13:30;;;;;;;28.83;20.97;;;1.50;76.10;;;;;;6301114;28;20717;-76
2023/12/08 11:16:39;;;;;;;26.93;20.93;;;1.60;76.10;;;;;;6309032;28;20491;-78
2023/12/08 11:19:42;;;;;;;24.63;19.43;;;1.60;76.10;;;;;;6306367;28;20241;-79
2023/12/08 11:22:47;;;;;;;27.57;20.23;;;1.60;76.00;;;;;;6319853;28;20640;-76
2023/12/08 11:26:00;;;;;;;24.93;19.60;;;1.50;75.80;;;;;;6326925;28;20231;-80
2023/12/08 11:29:11;;;;;;;28.07;20.43;;;1.60;75.80;;;;;;6331246;28;20224;-84
2023/12/08 11:32:24;;;;;;;25.70;20.13;;;1.60;75.80;;;;;;6327477;28;20245;-82
2023/12/08 11:35:30;;;;;;;22.97;18.93;;;1.60;75.70;;;;;;6322815;28;20239;-79
2023/12/08 11:38:33;;;;;;;27.87;20.63;;;1.60;75.60;;;;;;6329785;27;20232;-77
2023/12/08 11:41:39;;;;;;;26.60;20.43;;;1.50;75.70;;;;;;6319968;28;20233;-77
2023/12/08 11:44:44;;;;;;;24.33;19.40;;;1.50;75.80;;;;;;6313303;28;20248;-78
2023/12/08 11:47:48;;;;;;;27.30;19.87;;;1.60;75.70;;;;;;6317476;28;20517;-79
2023/12/08 11:50:51;;;;;;;26.87;19.70;;;1.50;75.70;;;;;;6314758;28;20342;-78
2023/12/08 11:53:56;;;;;;;26.53;20.60;;;1.50;75.80;;;;;;6324119;28;20232;-80
2023/12/08 11:57:04;;;;;;;26.57;20.23;;;1.40;75.70;;;;;;6315875;28;20229;-82
2023/12/08 12:00:10;;;;;;;26.50;19.70;;;1.40;75.90;;;;;;6319488;28;20237;-78
2023/12/08 12:03:13;;;;;;;22.50;18.90;;;1.40;76.10;;;;;;6314743;28;20252;-80
2023/12/08 12:06:17;;;;;;;27.13;19.87;;;1.40;76.10;;;;;;6332287;28;20461;-82
2023/12/08 12:09:22;;;;;;;31.17;20.93;;;1.40;76.10;;;;;;6303624;28;20888;-83
2023/12/08 12:12:30;;;;;;;28.47;20.40;;;1.50;76.30;;;;;;6314164;28;20228;-76
2023/12/08 12:15:34;;;;;;;30.87;20.80;;;1.50;76.00;;;;;;6294804;28;20436;-80
2023/12/08 12:18:38;;;;;;;28.17;19.93;;;1.50;75.90;;;;;;6311586;28;20236;-78
2023/12/08 12:21:43;;;;;;;25.67;19.43;;;1.40;76.10;;;;;;6311044;28;20240;-81
2023/12/08 12:24:47;;;;;;;25.17;19.07;;;1.50;76.20;;;;;;6315816;28;20727;-80
2023/12/08 12:27:54;;;;;;;25.57;19.40;;;1.60;75.80;;;;;;6326270;28;20237;-76
2023/12/08 12:30:59;;;;;;;27.60;19.20;;;1.60;75.50;;;;;;6322764;28;20731;-82
2023/12/08 12:34:02;;;;;;;24.67;19.33;;;1.60;75.10;;;;;;6322839;28;20249;-81
2023/12/08 12:37:07;;;;;;;22.83;18.50;;;1.50;75.30;;;;;;6321097;28;20239;-79
2023/12/08 12:40:12;;;;;;;25.07;20.40;;;1.60;75.40;;;;;;6309403;28;20700;-78
2023/12/08 12:43:18;;;;;;;25.90;19.67;;;1.60;75.50;;;;;;6289430;28;20239;-80
2023/12/08 12:46:22;;;;;;;26.77;19.47;;;1.60;75.50;;;;;;6327887;28;20308;-75
2023/12/08 12:49:25;;;;;;;23.60;20.33;;;1.60;75.20;;;;;;6320716;28;20228;-79
2023/12/08 12:52:29;;;;;;;24.10;19.50;;;1.60;75.40;;;;;;6319176;28;20240;-78
2023/12/08 12:55:32;;;;;;;26.10;20.70;;;1.60;75.50;;;;;;6317583;28;20229;-79
2023/12/08 12:58:36;;;;;;;26.53;20.27;;;1.60;75.50;;;;;;6321555;28;20236;-79
2023/12/08 13:01:45;;;;;;;29.20;20.67;;;1.60;75.50;;;;;;6320584;28;20277;-79
2023/12/08 13:04:49;;;;;;;25.43;19.13;;;1.60;75.50;;;;;;6321348;28;20647;-79
2023/12/08 13:07:57;;;;;;;26.73;19.70;;;1.60;75.30;;;;;;6314707;28;20254;-82
2023/12/08 13:11:00;;;;;;;24.93;19.70;;;1.60;75.40;;;;;;6315896;28;20728;-85
2023/12/08 13:14:05;;;;;;;25.87;19.60;;;1.50;75.50;;;;;;6318515;28;20247;-82
2023/12/08 13:17:09;;;;;;;25.50;19.57;;;1.50;75.60;;;;;;6316387;28;20240;-81
2023/12/08 13:20:12;;;;;;;29.87;20.20;;;1.50;75.60;;;;;;6318115;28;20236;-83
2023/12/08 13:23:16;;;;;;;27.87;20.03;;;1.50;75.60;;;;;;6319481;28;20236;-82
2023/12/08 13:26:19;;;;;;;27.13;19.23;;;1.50;75.70;;;;;;6320404;28;20232;-80
2023/12/08 13:29:30;;;;;;;23.90;18.73;;;1.50;75.70;;;;;;6316392;28;20244;-81
2023/12/08 13:32:34;;;;;;;28.03;20.70;;;1.50;75.50;;;;;;6301667;28;20248;-80
2023/12/08 13:35:37;;;;;;;27.80;19.53;;;1.50;75.60;;;;;;6313637;28;20370;-81
2023/12/08 13:38:40;;;;;;;29.03;19.27;;;1.50;75.70;;;;;;6299245;28;20268;-81
2023/12/08 13:41:44;;;;;;;25.63;19.37;;;1.50;75.50;;;;;;6301147;28;20266;-81
2023/12/08 13:44:49;;;;;;;25.30;19.67;;;1.50;75.50;;;;;;6314119;28;20268;-82
2023/12/08 13:47:52;;;;;;;26.40;20.07;;;1.50;75.80;;;;;;6320243;28;20252;-83
2023/12/08 13:50:55;;;;;;;25.50;20.27;;;1.50;75.70;;;;;;6316315;28;20857;-81
2023/12/08 13:54:17;;;;;;;23.63;19.47;;;1.50;75.60;;;;;;6334312;28;20323;-80
2023/12/08 13:57:21;;;;;;;25.33;19.20;;;1.40;75.70;;;;;;6337306;28;20372;-82
2023/12/08 14:00:26;;;;;;;26.97;20.10;;;1.40;75.80;;;;;;6333596;28;20712;-81
2023/12/08 14:03:30;;;;;;;24.33;19.03;;;1.40;75.90;;;;;;6307202;28;20264;-82
2023/12/08 14:06:33;;;;;;;23.47;18.83;;;1.40;76.00;;;;;;6310078;28;20686;-81
2023/12/08 14:09:36;;;;;;;24.87;19.93;;;1.40;75.90;;;;;;6316248;28;20270;-81
2023/12/08 14:12:44;;;;;;;27.90;20.47;;;1.40;76.00;;;;;;6313737;28;20237;-82
2023/12/08 14:15:49;;;;;;;27.20;20.80;;;1.20;76.10;;;;;;6317133;28;20262;-81
2023/12/08 14:18:52;;;;;;;28.00;21.57;;;1.40;76.00;;;;;;6314215;28;20299;-77
2023/12/08 14:21:56;;;;;;;26.73;20.93;;;1.40;76.20;;;;;;6326977;28;20378;-84
2023/12/08 14:25:00;;;;;;;30.30;22.37;;;1.30;76.20;;;;;;6339591;28;20323;-81
2023/12/08 14:28:04;;;;;;;28.20;21.00;;;1.30;76.40;;;;;;6329387;28;20224;-80
2023/12/08 14:31:09;;;;;;;27.90;19.97;;;1.40;76.40;;;;;;6335119;28;20232;-82
2023/12/08 14:34:12;;;;;;;28.30;21.10;;;1.20;76.50;;;;;;6330752;28;20232;-82
2023/12/08 14:37:15;;;;;;;26.37;19.97;;;1.20;76.60;;;;;;6335543;28;20235;-79
2023/12/08 14:40:21;;;;;;;25.07;19.13;;;1.20;76.70;;;;;;6334053;28;20235;-85
2023/12/08 14:43:26;;;;;;;27.47;20.53;;;1.20;76.50;;;;;;6329908;28;20763;-79
2023/12/08 14:46:30;;;;;;;27.30;20.80;;;1.30;76.50;;;;;;6321701;28;20239;-79
2023/12/08 14:49:34;;;;;;;27.27;20.47;;;1.40;76.50;;;;;;6336842;28;20645;-81
2023/12/08 14:52:37;;;;;;;28.03;20.43;;;1.40;76.40;;;;;;6335946;28;20239;-82
2023/12/08 14:55:42;;;;;;;27.43;20.57;;;1.30;76.60;;;;;;6336709;28;20232;-80
2023/12/08 14:59:00;;;;;;;27.33;20.53;;;1.40;76.60;;;;;;6339330;27;20232;-81
2023/12/08 15:02:05;;;;;;;28.20;20.07;;;1.30;76.70;;;;;;6337265;28;20382;-81
2023/12/08 15:05:09;;;;;;;32.40;22.37;;;1.40;76.60;;;;;;6336692;28;20231;-80
2023/12/08 15:08:13;;;;;;;31.87;21.57;;;1.20;77.00;;;;;;6336080;28;20273;-82
2023/12/08 15:18:05;;;;;;;29.03;22.23;;;1.50;76.20;;;;;;6247724;27;1284215;-76
2023/12/08 15:21:13;;;;;;;31.43;22.60;;;1.20;76.80;;;;;;6310939;28;20233;-81
2023/12/08 15:24:16;;;;;;;31.60;22.90;;;1.20;77.00;;;;;;6271414;28;20246;-82
2023/12/08 15:27:21;;;;;;;29.17;22.70;;;1.20;77.10;;;;;;6257038;28;20241;-82
2023/12/08 15:30:25;;;;;;;29.93;22.43;;;1.20;77.00;;;;;;6243485;28;20265;-80
2023/12/08 15:33:31;;;;;;;27.90;22.27;;;1.20;77.20;;;;;;6249680;28;20391;-79
2023/12/08 15:36:35;;;;;;;31.20;23.03;;;1.30;77.10;;;;;;6249684;28;20234;-80
2023/12/08 15:39:38;;;;;;;32.17;23.13;;;1.20;77.10;;;;;;6239025;28;20301;-81
2023/12/08 15:42:41;;;;;;;30.90;22.47;;;1.30;77.00;;;;;;6240778;28;20245;-80
2023/12/08 15:45:45;;;;;;;28.93;21.83;;;1.20;77.20;;;;;;6251594;28;20230;-81
2023/12/08 15:48:49;;;;;;;33.30;23.67;;;1.10;77.50;;;;;;6245891;28;20324;-81
2023/12/08 15:51:55;;;;;;;31.03;24.07;;;1.20;77.30;;;;;;6246070;28;20879;-81
2023/12/08 15:54:58;;;;;;;30.53;22.87;;;1.20;77.50;;;;;;6243828;28;20303;-81